sensor_id;sensor_type;location;lat;lon;timestamp;pressure;altitude;pressure_sealevel;temperature;humidity
34177;BME280;20450;49.074;9.158;2023-03-26T00:02:31;99320.72;;;8.66;80.92
34177;BME280;20450;49.074;9.158;2023-03-26T00:05:25;99304.41;;;8.55;81.15
34177;BME280;20450;49.074;9.158;2023-03-26T00:07:54;99322.81;;;8.51;81.00
34177;BME280;20450;49.074;9.158;2023-03-26T00:10:25;99303.78;;;8.53;80.35
34177;BME280;20450;49.074;9.158;2023-03-26T00:12:55;99304.59;;;8.60;80.60
34177;BME280;20450;49.074;9.158;2023-03-26T00:15:37;99305.44;;;8.47;81.28
34177;BME280;20450;49.074;9.158;2023-03-26T00:18:08;99298.63;;;8.45;80.76
34177;BME280;20450;49.074;9.158;2023-03-26T00:20:36;99304.00;;;8.45;80.55
34177;BME280;20450;49.074;9.158;2023-03-26T00:23:09;99306.28;;;8.48;80.88
34177;BME280;20450;49.074;9.158;2023-03-26T00:25:37;99299.44;;;8.58;80.17
34177;BME280;20450;49.074;9.158;2023-03-26T00:28:10;99301.50;;;8.56;80.12
34177;BME280;20450;49.074;9.158;2023-03-26T00:31:02;99305.44;;;8.54;79.51
34177;BME280;20450;49.074;9.158;2023-03-26T00:33:33;99301.28;;;8.51;79.80
34177;BME280;20450;49.074;9.158;2023-03-26T00:36:08;99302.34;;;8.50;80.50
34177;BME280;20450;49.074;9.158;2023-03-26T00:38:47;99301.50;;;8.50;81.16
34177;BME280;20450;49.074;9.158;2023-03-26T00:41:19;99293.47;;;8.37;81.27
34177;BME280;20450;49.074;9.158;2023-03-26T00:43:57;99297.63;;;8.39;81.80
34177;BME280;20450;49.074;9.158;2023-03-26T00:46:29;99298.00;;;8.43;81.79
34177;BME280;20450;49.074;9.158;2023-03-26T00:48:58;99292.63;;;8.43;81.75
34177;BME280;20450;49.074;9.158;2023-03-26T00:51:32;99293.47;;;8.37;81.23
34177;BME280;20450;49.074;9.158;2023-03-26T00:54:04;99286.84;;;8.33;81.93
34177;BME280;20450;49.074;9.158;2023-03-26T00:56:34;99285.00;;;8.27;81.76
34177;BME280;20450;49.074;9.158;2023-03-26T00:59:12;99280.41;;;8.21;81.98
34177;BME280;20450;49.074;9.158;2023-03-26T01:01:55;99269.44;;;8.16;82.48
34177;BME280;20450;49.074;9.158;2023-03-26T01:04:28;99265.53;;;8.25;81.27
34177;BME280;20450;49.074;9.158;2023-03-26T01:07:13;99261.56;;;8.21;81.26
34177;BME280;20450;49.074;9.158;2023-03-26T01:09:46;99261.16;;;8.17;81.48
34177;BME280;20450;49.074;9.158;2023-03-26T01:12:21;99248.34;;;8.13;81.74
34177;BME280;20450;49.074;9.158;2023-03-26T01:14:54;99243.19;;;8.04;81.70
34177;BME280;20450;49.074;9.158;2023-03-26T01:17:27;99236.13;;;8.03;81.70
34177;BME280;20450;49.074;9.158;2023-03-26T01:20:08;99231.78;;;8.02;81.38
34177;BME280;20450;49.074;9.158;2023-03-26T01:22:45;99232.84;;;8.01;81.98
34177;BME280;20450;49.074;9.158;2023-03-26T01:25:27;99234.28;;;7.97;82.14
34177;BME280;20450;49.074;9.158;2023-03-26T01:28:10;99223.31;;;7.86;82.58
34177;BME280;20450;49.074;9.158;2023-03-26T01:30:45;99225.63;;;7.82;82.92
34177;BME280;20450;49.074;9.158;2023-03-26T01:33:45;99221.88;;;7.83;82.83
34177;BME280;20450;49.074;9.158;2023-03-26T01:36:27;99202.84;;;7.78;83.15
34177;BME280;20450;49.074;9.158;2023-03-26T01:39:17;99204.94;;;7.76;83.21
34177;BME280;20450;49.074;9.158;2023-03-26T01:42:08;99200.41;;;7.70;83.08
34177;BME280;20450;49.074;9.158;2023-03-26T01:44:53;99199.75;;;7.68;83.38
34177;BME280;20450;49.074;9.158;2023-03-26T01:47:43;99197.28;;;7.73;82.84
34177;BME280;20450;49.074;9.158;2023-03-26T01:50:16;99195.41;;;7.74;83.02
34177;BME280;20450;49.074;9.158;2023-03-26T01:52:55;99187.56;;;7.72;82.57
34177;BME280;20450;49.074;9.158;2023-03-26T01:55:34;99190.44;;;7.77;81.64
34177;BME280;20450;49.074;9.158;2023-03-26T01:58:41;99181.97;;;7.80;81.97
34177;BME280;20450;49.074;9.158;2023-03-26T02:01:29;99181.75;;;7.82;81.96
34177;BME280;20450;49.074;9.158;2023-03-26T02:04:13;99172.44;;;7.91;80.79
34177;BME280;20450;49.074;9.158;2023-03-26T02:07:05;99170.59;;;7.85;82.05
34177;BME280;20450;49.074;9.158;2023-03-26T02:09:58;99170.19;;;7.88;81.58
34177;BME280;20450;49.074;9.158;2023-03-26T02:12:36;99159.41;;;7.88;81.14
34177;BME280;20450;49.074;9.158;2023-03-26T02:15:24;99156.53;;;7.83;81.50
34177;BME280;20450;49.074;9.158;2023-03-26T02:17:55;99144.34;;;7.80;81.48
34177;BME280;20450;49.074;9.158;2023-03-26T02:20:30;99136.47;;;7.85;80.97
34177;BME280;20450;49.074;9.158;2023-03-26T02:23:04;99125.06;;;7.96;79.87
34177;BME280;20450;49.074;9.158;2023-03-26T02:26:00;99127.13;;;7.94;80.33
34177;BME280;20450;49.074;9.158;2023-03-26T02:28:41;99120.09;;;7.93;80.22
34177;BME280;20450;49.074;9.158;2023-03-26T02:31:29;99108.53;;;7.93;79.55
34177;BME280;20450;49.074;9.158;2023-03-26T02:34:00;99114.50;;;7.95;79.66
34177;BME280;20450;49.074;9.158;2023-03-26T02:36:37;99106.06;;;7.91;80.31
34177;BME280;20450;49.074;9.158;2023-03-26T02:39:12;99113.88;;;7.99;79.17
34177;BME280;20450;49.074;9.158;2023-03-26T02:41:48;99105.97;;;8.11;78.21
34177;BME280;20450;49.074;9.158;2023-03-26T02:44:23;99105.56;;;8.14;78.48
34177;BME280;20450;49.074;9.158;2023-03-26T02:47:10;99103.06;;;8.13;78.21
34177;BME280;20450;49.074;9.158;2023-03-26T02:49:55;99102.06;;;8.14;78.27
34177;BME280;20450;49.074;9.158;2023-03-26T02:52:50;99100.78;;;8.16;78.67
34177;BME280;20450;49.074;9.158;2023-03-26T02:55:23;99097.88;;;8.18;78.36
34177;BME280;20450;49.074;9.158;2023-03-26T02:57:59;99094.16;;;8.19;78.58
34177;BME280;20450;49.074;9.158;2023-03-26T03:00:38;99091.28;;;8.14;79.23
34177;BME280;20450;49.074;9.158;2023-03-26T03:03:41;99080.34;;;8.08;79.49
34177;BME280;20450;49.074;9.158;2023-03-26T03:06:39;99068.34;;;8.04;79.26
34177;BME280;20450;49.074;9.158;2023-03-26T03:09:20;99074.34;;;8.06;79.17
34177;BME280;20450;49.074;9.158;2023-03-26T03:12:07;99078.06;;;8.05;79.17
34177;BME280;20450;49.074;9.158;2023-03-26T03:14:43;99069.56;;;8.08;79.18
34177;BME280;20450;49.074;9.158;2023-03-26T03:18:09;99069.16;;;8.12;79.02
34177;BME280;20450;49.074;9.158;2023-03-26T03:20:42;99065.41;;;8.13;79.58
34177;BME280;20450;49.074;9.158;2023-03-26T03:23:13;99070.00;;;8.12;79.33
34177;BME280;20450;49.074;9.158;2023-03-26T03:25:49;99066.47;;;8.12;80.05
34177;BME280;20450;49.074;9.158;2023-03-26T03:28:24;99070.19;;;8.11;79.76
34177;BME280;20450;49.074;9.158;2023-03-26T03:30:57;99058.59;;;8.10;80.13
34177;BME280;20450;49.074;9.158;2023-03-26T03:33:32;99057.19;;;8.07;80.25
34177;BME280;20450;49.074;9.158;2023-03-26T03:36:04;99049.09;;;8.07;80.78
34177;BME280;20450;49.074;9.158;2023-03-26T03:38:40;99049.09;;;8.07;80.84
34177;BME280;20450;49.074;9.158;2023-03-26T03:41:19;99043.69;;;8.14;80.19
34177;BME280;20450;49.074;9.158;2023-03-26T03:44:12;99034.97;;;8.19;80.46
34177;BME280;20450;49.074;9.158;2023-03-26T03:46:48;99034.16;;;8.18;79.90
34177;BME280;20450;49.074;9.158;2023-03-26T03:49:29;99031.47;;;8.18;80.09
34177;BME280;20450;49.074;9.158;2023-03-26T03:52:07;99014.50;;;8.18;80.18
34177;BME280;20450;49.074;9.158;2023-03-26T03:54:43;99014.28;;;8.19;79.89
34177;BME280;20450;49.074;9.158;2023-03-26T03:57:25;99009.75;;;8.20;79.63
34177;BME280;20450;49.074;9.158;2023-03-26T04:00:01;99014.28;;;8.26;80.04
34177;BME280;20450;49.074;9.158;2023-03-26T04:02:54;98999.91;;;8.38;79.10
34177;BME280;20450;49.074;9.158;2023-03-26T04:05:30;98985.38;;;8.46;79.33
34177;BME280;20450;49.074;9.158;2023-03-26T04:08:00;98992.81;;;8.50;79.14
34177;BME280;20450;49.074;9.158;2023-03-26T04:10:53;98989.16;;;8.38;78.64
34177;BME280;20450;49.074;9.158;2023-03-26T04:14:00;98985.81;;;8.43;78.69
34177;BME280;20450;49.074;9.158;2023-03-26T04:17:03;98989.38;;;8.37;79.32
34177;BME280;20450;49.074;9.158;2023-03-26T04:19:39;98990.81;;;8.39;78.92
34177;BME280;20450;49.074;9.158;2023-03-26T04:22:09;98982.47;;;8.47;78.88
34177;BME280;20450;49.074;9.158;2023-03-26T04:25:10;98980.34;;;8.56;78.89
34177;BME280;20450;49.074;9.158;2023-03-26T04:27:50;98975.13;;;8.61;78.95
34177;BME280;20450;49.074;9.158;2023-03-26T04:30:52;98970.41;;;8.56;77.84
34177;BME280;20450;49.074;9.158;2023-03-26T04:33:40;98956.28;;;8.61;78.22
34177;BME280;20450;49.074;9.158;2023-03-26T04:36:32;98946.72;;;8.65;77.72
34177;BME280;20450;49.074;9.158;2023-03-26T04:39:13;98942.28;;;8.52;78.24
34177;BME280;20450;49.074;9.158;2023-03-26T04:42:19;98942.66;;;8.56;78.69
34177;BME280;20450;49.074;9.158;2023-03-26T04:45:13;98938.06;;;8.63;78.50
34177;BME280;20450;49.074;9.158;2023-03-26T04:48:06;98930.66;;;8.58;79.05
34177;BME280;20450;49.074;9.158;2023-03-26T04:50:41;98911.63;;;8.53;78.91
34177;BME280;20450;49.074;9.158;2023-03-26T04:53:16;98907.72;;;8.49;78.50
34177;BME280;20450;49.074;9.158;2023-03-26T04:56:12;98891.38;;;8.51;78.17
34177;BME280;20450;49.074;9.158;2023-03-26T04:59:21;98885.97;;;8.51;78.38
34177;BME280;20450;49.074;9.158;2023-03-26T05:01:54;98886.78;;;8.51;78.25
34177;BME280;20450;49.074;9.158;2023-03-26T05:04:31;98882.25;;;8.52;77.98
34177;BME280;20450;49.074;9.158;2023-03-26T05:07:04;98872.88;;;8.54;78.42
34177;BME280;20450;49.074;9.158;2023-03-26T05:09:43;98876.38;;;8.61;78.14
34177;BME280;20450;49.074;9.158;2023-03-26T05:12:19;98875.97;;;8.58;77.60
34177;BME280;20450;49.074;9.158;2023-03-26T05:15:04;98885.09;;;8.57;77.68
34177;BME280;20450;49.074;9.158;2023-03-26T05:17:59;98884.03;;;8.58;77.27
34177;BME280;20450;49.074;9.158;2023-03-26T05:20:41;98887.19;;;8.55;77.57
34177;BME280;20450;49.074;9.158;2023-03-26T05:23:13;98881.19;;;8.53;77.75
34177;BME280;20450;49.074;9.158;2023-03-26T05:25:59;98867.41;;;8.43;78.30
34177;BME280;20450;49.074;9.158;2023-03-26T05:28:46;98864.50;;;8.44;78.35
34177;BME280;20450;49.074;9.158;2023-03-26T05:31:27;98861.19;;;8.42;78.78
34177;BME280;20450;49.074;9.158;2023-03-26T05:34:06;98845.56;;;8.33;79.42
34177;BME280;20450;49.074;9.158;2023-03-26T05:36:46;98844.81;;;8.26;80.26
34177;BME280;20450;49.074;9.158;2023-03-26T05:39:31;98851.59;;;8.22;80.08
34177;BME280;20450;49.074;9.158;2023-03-26T05:42:31;98840.25;;;8.20;80.68
34177;BME280;20450;49.074;9.158;2023-03-26T05:45:13;98845.59;;;8.26;80.46
34177;BME280;20450;49.074;9.158;2023-03-26T05:47:48;98835.69;;;8.27;80.35
34177;BME280;20450;49.074;9.158;2023-03-26T05:50:27;98832.97;;;8.27;80.33
34177;BME280;20450;49.074;9.158;2023-03-26T05:53:05;98831.94;;;8.28;80.79
34177;BME280;20450;49.074;9.158;2023-03-26T05:56:04;98826.72;;;8.33;80.13
34177;BME280;20450;49.074;9.158;2023-03-26T05:58:55;98819.72;;;8.32;80.17
34177;BME280;20450;49.074;9.158;2023-03-26T06:01:50;98812.66;;;8.31;80.45
34177;BME280;20450;49.074;9.158;2023-03-26T06:04:52;98806.03;;;8.33;80.15
34177;BME280;20450;49.074;9.158;2023-03-26T06:07:57;98796.69;;;8.36;80.32
34177;BME280;20450;49.074;9.158;2023-03-26T06:10:31;98787.13;;;8.40;80.65
34177;BME280;20450;49.074;9.158;2023-03-26T06:13:04;98785.63;;;8.44;80.36
34177;BME280;20450;49.074;9.158;2023-03-26T06:15:38;98782.44;;;8.53;79.78
34177;BME280;20450;49.074;9.158;2023-03-26T06:18:47;98776.09;;;8.66;80.06
34177;BME280;20450;49.074;9.158;2023-03-26T06:21:33;98761.75;;;8.72;79.39
34177;BME280;20450;49.074;9.158;2023-03-26T06:24:17;98757.47;;;8.64;79.56
34177;BME280;20450;49.074;9.158;2023-03-26T06:27:26;98762.63;;;8.66;80.05
34177;BME280;20450;49.074;9.158;2023-03-26T06:30:23;98759.56;;;8.62;80.24
34177;BME280;20450;49.074;9.158;2023-03-26T06:33:19;98740.50;;;8.64;79.97
34177;BME280;20450;49.074;9.158;2023-03-26T06:36:04;98731.59;;;8.63;79.73
34177;BME280;20450;49.074;9.158;2023-03-26T06:38:43;98728.44;;;8.66;79.95
34177;BME280;20450;49.074;9.158;2023-03-26T06:41:44;98729.78;;;8.75;80.00
34177;BME280;20450;49.074;9.158;2023-03-26T06:44:45;98720.81;;;8.81;79.12
34177;BME280;20450;49.074;9.158;2023-03-26T06:47:33;98722.03;;;8.85;78.12
34177;BME280;20450;49.074;9.158;2023-03-26T06:50:38;98709.50;;;8.91;76.89
34177;BME280;20450;49.074;9.158;2023-03-26T06:53:13;98696.63;;;8.93;77.40
34177;BME280;20450;49.074;9.158;2023-03-26T06:56:14;98692.56;;;9.02;76.60
34177;BME280;20450;49.074;9.158;2023-03-26T06:59:10;98688.97;;;9.08;75.44
34177;BME280;20450;49.074;9.158;2023-03-26T07:02:01;98684.44;;;9.20;74.76
34177;BME280;20450;49.074;9.158;2023-03-26T07:04:52;98686.22;;;9.26;74.52
34177;BME280;20450;49.074;9.158;2023-03-26T07:07:43;98692.44;;;9.26;74.79
34177;BME280;20450;49.074;9.158;2023-03-26T07:10:38;98689.06;;;9.31;72.87
34177;BME280;20450;49.074;9.158;2023-03-26T07:13:20;98685.66;;;9.24;74.57
34177;BME280;20450;49.074;9.158;2023-03-26T07:16:02;98685.97;;;9.16;74.73
34177;BME280;20450;49.074;9.158;2023-03-26T07:19:11;98696.81;;;9.09;74.34
34177;BME280;20450;49.074;9.158;2023-03-26T07:21:46;98693.78;;;9.06;76.12
34177;BME280;20450;49.074;9.158;2023-03-26T07:25:13;98684.38;;;8.97;77.07
34177;BME280;20450;49.074;9.158;2023-03-26T07:28:26;98689.41;;;9.05;75.54
34177;BME280;20450;49.074;9.158;2023-03-26T07:31:35;98672.53;;;8.98;75.72
34177;BME280;20450;49.074;9.158;2023-03-26T07:34:47;98670.44;;;9.00;75.73
34177;BME280;20450;49.074;9.158;2023-03-26T07:37:37;98681.91;;;8.95;76.59
34177;BME280;20450;49.074;9.158;2023-03-26T07:40:49;98667.91;;;8.87;77.67
34177;BME280;20450;49.074;9.158;2023-03-26T07:43:56;98656.66;;;8.78;78.40
34177;BME280;20450;49.074;9.158;2023-03-26T07:47:22;98656.66;;;8.78;78.19
34177;BME280;20450;49.074;9.158;2023-03-26T07:50:19;98659.28;;;8.67;78.58
34177;BME280;20450;49.074;9.158;2023-03-26T07:53:17;98655.25;;;8.58;80.39
34177;BME280;20450;49.074;9.158;2023-03-26T07:56:19;98656.75;;;8.54;82.36
34177;BME280;20450;49.074;9.158;2023-03-26T07:59:19;98658.78;;;8.58;85.18
34177;BME280;20450;49.074;9.158;2023-03-26T08:02:21;98652.94;;;8.61;86.79
34177;BME280;20450;49.074;9.158;2023-03-26T08:05:51;98654.38;;;8.28;86.24
34177;BME280;20450;49.074;9.158;2023-03-26T08:08:49;98652.59;;;7.97;87.16
34177;BME280;20450;49.074;9.158;2023-03-26T08:11:53;98648.34;;;7.89;86.59
34177;BME280;20450;49.074;9.158;2023-03-26T08:14:39;98650.63;;;7.86;86.99
34177;BME280;20450;49.074;9.158;2023-03-26T08:17:25;98641.22;;;7.77;87.46
34177;BME280;20450;49.074;9.158;2023-03-26T08:20:06;98644.94;;;7.76;88.05
34177;BME280;20450;49.074;9.158;2023-03-26T08:23:04;98642.88;;;7.78;88.87
34177;BME280;20450;49.074;9.158;2023-03-26T08:25:54;98633.38;;;7.75;89.47
34177;BME280;20450;49.074;9.158;2023-03-26T08:28:54;98624.06;;;7.78;89.83
34177;BME280;20450;49.074;9.158;2023-03-26T08:31:33;98605.25;;;7.78;88.88
34177;BME280;20450;49.074;9.158;2023-03-26T08:34:07;98608.84;;;7.90;86.29
34177;BME280;20450;49.074;9.158;2023-03-26T08:36:40;98606.72;;;7.92;87.08
34177;BME280;20450;49.074;9.158;2023-03-26T08:39:22;98599.34;;;7.87;86.86
34177;BME280;20450;49.074;9.158;2023-03-26T08:48:59;98596.13;;;7.79;88.91
34177;BME280;20450;49.074;9.158;2023-03-26T08:52:36;98584.53;;;7.78;89.29
34177;BME280;20450;49.074;9.158;2023-03-26T08:55:38;98595.91;;;7.80;87.31
34177;BME280;20450;49.074;9.158;2023-03-26T08:58:50;98607.31;;;7.76;88.46
34177;BME280;20450;49.074;9.158;2023-03-26T09:02:16;98604.63;;;7.76;90.34
34177;BME280;20450;49.074;9.158;2023-03-26T09:19:46;98574.69;;;7.72;91.47
34177;BME280;20450;49.074;9.158;2023-03-26T09:23:19;98580.06;;;7.90;91.27
34177;BME280;20450;49.074;9.158;2023-03-26T09:26:29;98569.59;;;8.00;89.10
34177;BME280;20450;49.074;9.158;2023-03-26T09:33:06;98568.94;;;8.41;88.78
34177;BME280;20450;49.074;9.158;2023-03-26T09:36:01;98559.91;;;8.65;87.21
34177;BME280;20450;49.074;9.158;2023-03-26T09:38:53;98546.31;;;9.01;83.89
34177;BME280;20450;49.074;9.158;2023-03-26T09:41:40;98557.03;;;9.31;85.06
34177;BME280;20450;49.074;9.158;2023-03-26T09:51:45;98564.81;;;9.09;86.04
34177;BME280;20450;49.074;9.158;2023-03-26T09:55:00;98573.34;;;8.95;87.41
34177;BME280;20450;49.074;9.158;2023-03-26T09:58:04;98581.69;;;9.05;89.21
34177;BME280;20450;49.074;9.158;2023-03-26T10:00:48;98574.56;;;9.22;89.21
34177;BME280;20450;49.074;9.158;2023-03-26T10:03:48;98570.59;;;9.36;89.43
34177;BME280;20450;49.074;9.158;2023-03-26T10:06:42;98563.56;;;9.46;88.50
34177;BME280;20450;49.074;9.158;2023-03-26T10:09:42;98561.38;;;9.55;88.69
34177;BME280;20450;49.074;9.158;2023-03-26T10:12:34;98553.41;;;9.37;86.75
34177;BME280;20450;49.074;9.158;2023-03-26T10:15:24;98554.78;;;9.39;86.64
34177;BME280;20450;49.074;9.158;2023-03-26T10:18:14;98552.47;;;9.43;85.93
34177;BME280;20450;49.074;9.158;2023-03-26T10:21:12;98560.41;;;9.49;85.28
34177;BME280;20450;49.074;9.158;2023-03-26T10:24:12;98566.06;;;9.59;84.80
34177;BME280;20450;49.074;9.158;2023-03-26T10:27:33;98563.56;;;10.16;85.26
34177;BME280;20450;49.074;9.158;2023-03-26T10:30:52;98570.47;;;10.79;84.95
34177;BME280;20450;49.074;9.158;2023-03-26T10:33:52;98553.81;;;10.99;82.91
34177;BME280;20450;49.074;9.158;2023-03-26T10:36:35;98560.38;;;11.19;81.07
34177;BME280;20450;49.074;9.158;2023-03-26T10:40:01;98537.59;;;13.57;79.63
34177;BME280;20450;49.074;9.158;2023-03-26T10:43:26;98540.44;;;13.77;75.62
34177;BME280;20450;49.074;9.158;2023-03-26T10:46:23;98531.97;;;15.83;74.87
34177;BME280;20450;49.074;9.158;2023-03-26T10:49:31;98519.22;;;16.52;61.12
34177;BME280;20450;49.074;9.158;2023-03-26T10:52:17;98521.03;;;17.82;67.48
34177;BME280;20450;49.074;9.158;2023-03-26T10:54:56;98516.78;;;17.95;63.20
34177;BME280;20450;49.074;9.158;2023-03-26T10:57:44;98518.56;;;17.18;62.17
34177;BME280;20450;49.074;9.158;2023-03-26T11:00:27;98520.88;;;16.43;63.39
34177;BME280;20450;49.074;9.158;2023-03-26T11:06:39;98518.09;;;16.63;63.91
34177;BME280;20450;49.074;9.158;2023-03-26T11:09:24;98519.44;;;17.76;58.76
34177;BME280;20450;49.074;9.158;2023-03-26T11:12:08;98508.50;;;18.89;55.73
34177;BME280;20450;49.074;9.158;2023-03-26T11:15:11;98488.97;;;19.14;50.92
34177;BME280;20450;49.074;9.158;2023-03-26T11:18:02;98479.28;;;19.03;48.67
34177;BME280;20450;49.074;9.158;2023-03-26T11:20:42;98475.88;;;19.75;45.29
34177;BME280;20450;49.074;9.158;2023-03-26T11:24:03;98474.28;;;19.88;49.70
34177;BME280;20450;49.074;9.158;2023-03-26T11:26:51;98487.81;;;19.01;49.01
34177;BME280;20450;49.074;9.158;2023-03-26T11:29:50;98492.50;;;18.59;51.81
34177;BME280;20450;49.074;9.158;2023-03-26T11:32:44;98489.75;;;17.93;50.85
34177;BME280;20450;49.074;9.158;2023-03-26T11:35:28;98491.44;;;17.60;51.65
34177;BME280;20450;49.074;9.158;2023-03-26T11:38:35;98492.63;;;17.16;53.14
34177;BME280;20450;49.074;9.158;2023-03-26T11:41:15;98497.66;;;17.37;51.24
34177;BME280;20450;49.074;9.158;2023-03-26T11:44:21;98470.25;;;16.27;51.15
34177;BME280;20450;49.074;9.158;2023-03-26T11:46:57;98488.44;;;16.95;48.15
34177;BME280;20450;49.074;9.158;2023-03-26T11:49:37;98480.03;;;16.33;48.99
34177;BME280;20450;49.074;9.158;2023-03-26T11:52:16;98484.59;;;15.89;49.24
34177;BME280;20450;49.074;9.158;2023-03-26T11:54:57;98471.53;;;15.81;48.53
34177;BME280;20450;49.074;9.158;2023-03-26T11:57:33;98467.41;;;16.95;44.69
34177;BME280;20450;49.074;9.158;2023-03-26T12:00:22;98458.59;;;17.94;41.37
34177;BME280;20450;49.074;9.158;2023-03-26T12:03:15;98467.00;;;18.63;40.37
34177;BME280;20450;49.074;9.158;2023-03-26T12:06:01;98471.97;;;18.98;38.10
34177;BME280;20450;49.074;9.158;2023-03-26T12:08:38;98462.38;;;17.98;40.72
34177;BME280;20450;49.074;9.158;2023-03-26T12:11:14;98474.06;;;16.31;41.86
34177;BME280;20450;49.074;9.158;2023-03-26T12:13:54;98458.81;;;16.30;40.57
34177;BME280;20450;49.074;9.158;2023-03-26T12:17:05;98474.03;;;15.62;43.70
34177;BME280;20450;49.074;9.158;2023-03-26T12:19:46;98470.25;;;15.28;43.62
34177;BME280;20450;49.074;9.158;2023-03-26T12:22:35;98474.84;;;15.07;45.04
34177;BME280;20450;49.074;9.158;2023-03-26T12:25:18;98470.75;;;14.65;45.71
34177;BME280;20450;49.074;9.158;2023-03-26T12:28:02;98470.47;;;14.46;46.23
34177;BME280;20450;49.074;9.158;2023-03-26T12:30:59;98476.66;;;14.27;47.08
34177;BME280;20450;49.074;9.158;2023-03-26T12:33:34;98481.28;;;14.31;46.50
34177;BME280;20450;49.074;9.158;2023-03-26T12:36:19;98472.09;;;14.57;46.34
34177;BME280;20450;49.074;9.158;2023-03-26T12:38:56;98470.19;;;14.58;46.01
34177;BME280;20450;49.074;9.158;2023-03-26T12:41:54;98454.41;;;14.60;44.67
34177;BME280;20450;49.074;9.158;2023-03-26T12:44:56;98459.59;;;14.61;43.24
34177;BME280;20450;49.074;9.158;2023-03-26T12:47:41;98461.22;;;14.67;44.19
34177;BME280;20450;49.074;9.158;2023-03-26T12:51:03;98462.88;;;14.73;42.36
34177;BME280;20450;49.074;9.158;2023-03-26T12:57:18;98443.31;;;15.21;43.16
34177;BME280;20450;49.074;9.158;2023-03-26T12:59:55;98431.31;;;15.22;41.95
34177;BME280;20450;49.074;9.158;2023-03-26T13:06:13;98425.84;;;15.67;42.78
34177;BME280;20450;49.074;9.158;2023-03-26T13:09:23;98419.56;;;15.77;41.47
34177;BME280;20450;49.074;9.158;2023-03-26T13:12:21;98419.84;;;15.70;41.51
34177;BME280;20450;49.074;9.158;2023-03-26T13:15:15;98417.13;;;15.70;41.82
34177;BME280;20450;49.074;9.158;2023-03-26T13:18:02;98405.41;;;15.70;41.49
34177;BME280;20450;49.074;9.158;2023-03-26T13:20:57;98407.38;;;15.49;41.32
34177;BME280;20450;49.074;9.158;2023-03-26T13:23:47;98414.44;;;15.55;41.10
34177;BME280;20450;49.074;9.158;2023-03-26T13:26:44;98397.00;;;15.56;40.76
34177;BME280;20450;49.074;9.158;2023-03-26T13:29:40;98397.03;;;15.51;41.10
34177;BME280;20450;49.074;9.158;2023-03-26T13:32:25;98398.66;;;15.52;42.32
34177;BME280;20450;49.074;9.158;2023-03-26T13:35:21;98398.13;;;15.45;42.42
34177;BME280;20450;49.074;9.158;2023-03-26T13:38:06;98390.16;;;15.74;42.78
34177;BME280;20450;49.074;9.158;2023-03-26T13:40:56;98383.78;;;15.99;42.32
34177;BME280;20450;49.074;9.158;2023-03-26T13:43:44;98399.78;;;16.10;42.28
34177;BME280;20450;49.074;9.158;2023-03-26T13:46:31;98392.63;;;15.65;46.18
34177;BME280;20450;49.074;9.158;2023-03-26T13:49:13;98399.00;;;15.01;47.21
34177;BME280;20450;49.074;9.158;2023-03-26T13:51:55;98399.84;;;14.86;48.62
34177;BME280;20450;49.074;9.158;2023-03-26T13:54:39;98375.88;;;14.88;47.55
34177;BME280;20450;49.074;9.158;2023-03-26T13:57:20;98391.66;;;15.06;47.15
34177;BME280;20450;49.074;9.158;2023-03-26T14:00:04;98383.78;;;14.90;46.19
34177;BME280;20450;49.074;9.158;2023-03-26T14:02:46;98385.41;;;14.81;44.86
34177;BME280;20450;49.074;9.158;2023-03-26T14:05:39;98387.03;;;14.62;45.21
34177;BME280;20450;49.074;9.158;2023-03-26T14:08:26;98360.41;;;14.89;45.05
34177;BME280;20450;49.074;9.158;2023-03-26T14:11:07;98377.25;;;14.96;44.01
34177;BME280;20450;49.074;9.158;2023-03-26T14:13:48;98378.88;;;15.07;43.69
34177;BME280;20450;49.074;9.158;2023-03-26T14:16:32;98373.19;;;14.78;44.85
34177;BME280;20450;49.074;9.158;2023-03-26T14:19:21;98379.41;;;14.84;46.70
34177;BME280;20450;49.074;9.158;2023-03-26T14:22:23;98371.53;;;14.67;47.31
34177;BME280;20450;49.074;9.158;2023-03-26T14:25:19;98373.72;;;14.65;46.95
34177;BME280;20450;49.074;9.158;2023-03-26T14:31:17;98384.88;;;14.64;47.48
34177;BME280;20450;49.074;9.158;2023-03-26T14:34:31;98382.97;;;14.59;47.18
34177;BME280;20450;49.074;9.158;2023-03-26T14:37:37;98393.00;;;14.39;46.67
34177;BME280;20450;49.074;9.158;2023-03-26T14:40:42;98396.25;;;14.41;47.16
34177;BME280;20450;49.074;9.158;2023-03-26T14:43:53;98399.50;;;14.33;47.79
34177;BME280;20450;49.074;9.158;2023-03-26T14:50:23;98418.94;;;14.00;45.98
34177;BME280;20450;49.074;9.158;2023-03-26T14:53:17;98433.25;;;13.80;46.48
34177;BME280;20450;49.074;9.158;2023-03-26T14:56:30;98426.66;;;13.66;47.49
34177;BME280;20450;49.074;9.158;2023-03-26T15:00:02;98441.59;;;13.22;48.99
34177;BME280;20450;49.074;9.158;2023-03-26T15:03:34;98451.09;;;12.93;51.56
34177;BME280;20450;49.074;9.158;2023-03-26T15:13:47;98497.97;;;11.37;64.51
34177;BME280;20450;49.074;9.158;2023-03-26T15:23:52;98491.75;;;11.20;68.48
34177;BME280;20450;49.074;9.158;2023-03-26T15:33:58;98506.31;;;10.86;70.29
34177;BME280;20450;49.074;9.158;2023-03-26T15:37:29;98500.44;;;10.73;70.29
34177;BME280;20450;49.074;9.158;2023-03-26T15:44:06;98504.63;;;10.52;69.76
34177;BME280;20450;49.074;9.158;2023-03-26T15:51:03;98481.53;;;10.45;70.61
34177;BME280;20450;49.074;9.158;2023-03-26T15:53:54;98479.56;;;10.40;69.96
34177;BME280;20450;49.074;9.158;2023-03-26T15:56:46;98478.81;;;10.45;69.85
34177;BME280;20450;49.074;9.158;2023-03-26T15:59:36;98475.84;;;10.30;71.20
34177;BME280;20450;49.074;9.158;2023-03-26T16:02:28;98470.84;;;10.22;71.25
34177;BME280;20450;49.074;9.158;2023-03-26T16:05:29;98479.66;;;9.77;72.11
34177;BME280;20450;49.074;9.158;2023-03-26T16:08:19;98468.09;;;9.93;71.36
34177;BME280;20450;49.074;9.158;2023-03-26T16:11:02;98461.88;;;9.93;70.98
34177;BME280;20450;49.074;9.158;2023-03-26T16:13:38;98476.84;;;9.72;71.06
34177;BME280;20450;49.074;9.158;2023-03-26T16:16:22;98483.34;;;9.88;71.24
34177;BME280;20450;49.074;9.158;2023-03-26T16:19:48;98491.44;;;9.99;69.69
34177;BME280;20450;49.074;9.158;2023-03-26T16:23:01;98488.75;;;9.88;70.31
34177;BME280;20450;49.074;9.158;2023-03-26T16:25:59;98502.94;;;9.95;70.62